Time;durP1;ratioP1;P1;durP2;ratioP2;P2;SDS_P1;SDS_P2;PMS_P1;PMS_P2;Temp;Humidity;BMP_temperature;BMP_pressure;BME280_temperature;BME280_humidity;BME280_pressure;Samples;Min_cycle;Max_cycle;Signal;HPM_P1;HPM_P2
2023/10/01 00:01:36;;;;;;;1999.90;999.90;;;;;;;;;;4955747;29;20019;-69
2023/10/01 00:04:04;;;;;;;1999.90;999.90;;;;;;;;;;4955373;29;20066;-68
2023/10/01 00:06:30;;;;;;;1999.90;999.90;;;;;;;;;;4955153;29;20024;-69
2023/10/01 00:08:57;;;;;;;1999.90;999.90;;;;;;;;;;4955225;29;20102;-68
2023/10/01 00:11:24;;;;;;;1999.90;999.90;;;;;;;;;;4953401;29;20028;-67
2023/10/01 00:13:51;;;;;;;1999.90;999.90;;;;;;;;;;4954842;29;20075;-69
2023/10/01 00:16:17;;;;;;;1999.90;999.90;;;;;;;;;;4955274;29;20019;-70
2023/10/01 00:18:43;;;;;;;1999.90;999.90;;;;;;;;;;4955679;29;20032;-67
2023/10/01 00:21:09;;;;;;;1999.90;999.90;;;;;;;;;;4955130;29;20071;-69
2023/10/01 00:23:35;;;;;;;1999.90;999.90;;;;;;;;;;4955516;29;20023;-68
2023/10/01 00:26:01;;;;;;;1999.90;999.90;;;;;;;;;;4955210;29;20039;-69
2023/10/01 00:28:27;;;;;;;1999.90;999.90;;;;;;;;;;4955665;29;20039;-70
2023/10/01 00:30:53;;;;;;;1999.90;999.90;;;;;;;;;;4955015;29;20035;-69
2023/10/01 00:33:19;;;;;;;1999.90;999.90;;;;;;;;;;4955219;29;20086;-69
2023/10/01 00:35:45;;;;;;;1999.90;999.90;;;;;;;;;;4955148;29;20027;-69
2023/10/01 00:38:12;;;;;;;1999.90;999.90;;;;;;;;;;4955063;29;20380;-69
2023/10/01 00:40:38;;;;;;;1999.90;999.90;;;;;;;;;;4954972;29;20483;-68
2023/10/01 00:43:05;;;;;;;1999.90;999.90;;;;;;;;;;4954842;29;20035;-69
2023/10/01 00:45:31;;;;;;;1999.90;999.90;;;;;;;;;;4955240;29;20027;-69
2023/10/01 00:47:59;;;;;;;1999.90;999.90;;;;;;;;;;4954697;29;20063;-69
2023/10/01 00:50:25;;;;;;;1999.90;999.90;;;;;;;;;;4954301;28;20054;-69
2023/10/01 00:52:56;;;;;;;1999.90;999.90;;;;;;;;;;4954889;29;20023;-69
2023/10/01 00:55:23;;;;;;;1999.90;999.90;;;;;;;;;;4954448;28;20035;-69
2023/10/01 00:57:49;;;;;;;1999.90;999.90;;;;;;;;;;4955009;29;20031;-69
2023/10/01 01:00:16;;;;;;;1999.90;999.90;;;;;;;;;;4954750;29;20461;-70
2023/10/01 01:03:08;;;;;;;1999.90;999.90;;;;;;;;;;4954770;29;20133;-72
2023/10/01 01:05:41;;;;;;;1999.90;999.90;;;;;;;;;;4953826;29;20062;-69
2023/10/01 01:08:28;;;;;;;1999.90;999.90;;;;;;;;;;4954359;29;20031;-66
2023/10/01 01:10:56;;;;;;;1999.90;999.90;;;;;;;;;;4954032;29;20024;-68
2023/10/01 01:13:24;;;;;;;1999.90;999.90;;;;;;;;;;4953914;29;20035;-68
2023/10/01 01:15:51;;;;;;;1999.90;999.90;;;;;;;;;;4954173;29;20114;-69
2023/10/01 01:18:21;;;;;;;1999.90;999.90;;;;;;;;;;4954300;29;20050;-68
2023/10/01 01:20:48;;;;;;;1999.90;999.90;;;;;;;;;;4953981;29;20027;-67
2023/10/01 01:23:24;;;;;;;1999.90;999.90;;;;;;;;;;4954199;29;20083;-69
2023/10/01 01:25:52;;;;;;;1999.90;999.90;;;;;;;;;;4953669;28;20062;-68
2023/10/01 01:28:27;;;;;;;1999.90;999.90;;;;;;;;;;4953862;29;20035;-67
2023/10/01 01:30:53;;;;;;;1999.90;999.90;;;;;;;;;;4953902;29;20082;-68
2023/10/01 01:33:26;;;;;;;1999.90;999.90;;;;;;;;;;4954077;29;20039;-68
2023/10/01 01:35:54;;;;;;;1999.90;999.90;;;;;;;;;;4953736;29;20113;-67
2023/10/01 01:38:23;;;;;;;1999.90;999.90;;;;;;;;;;4954001;29;20023;-68
2023/10/01 01:40:51;;;;;;;1999.90;999.90;;;;;;;;;;4953354;29;20047;-69
2023/10/01 01:43:21;;;;;;;1999.90;999.90;;;;;;;;;;4953527;29;20031;-68
2023/10/01 01:45:48;;;;;;;1999.90;999.90;;;;;;;;;;4936555;29;20047;-68
2023/10/01 01:48:30;;;;;;;1999.90;999.90;;;;;;;;;;4953278;29;20074;-68
2023/10/01 01:51:03;;;;;;;1999.90;999.90;;;;;;;;;;4953813;29;20027;-68
2023/10/01 01:53:35;;;;;;;1999.90;999.90;;;;;;;;;;4953643;29;20031;-68
2023/10/01 01:56:05;;;;;;;1999.90;999.90;;;;;;;;;;4953350;28;20050;-70
2023/10/01 01:58:32;;;;;;;1999.90;999.90;;;;;;;;;;4953671;29;20035;-67
2023/10/01 02:01:08;;;;;;;1999.90;999.90;;;;;;;;;;4953441;28;20494;-68
2023/10/01 02:03:34;;;;;;;1999.90;999.90;;;;;;;;;;4953334;29;20497;-68
2023/10/01 02:06:01;;;;;;;1999.90;999.90;;;;;;;;;;4953293;29;20022;-68
2023/10/01 02:11:13;;;;;;;1999.90;999.90;;;;;;;;;;4953314;29;20058;-68
2023/10/01 02:13:40;;;;;;;1999.90;999.90;;;;;;;;;;4952671;29;20039;-68
2023/10/01 02:16:19;;;;;;;1999.90;999.90;;;;;;;;;;4953262;29;20368;-66
2023/10/01 02:21:42;;;;;;;1999.90;999.90;;;;;;;;;;4953323;29;20542;-68
2023/10/01 02:24:12;;;;;;;1999.90;999.90;;;;;;;;;;4953501;29;20038;-70
2023/10/01 02:26:41;;;;;;;1999.90;999.90;;;;;;;;;;4952851;29;20050;-68
2023/10/01 02:29:08;;;;;;;1999.90;999.90;;;;;;;;;;4953274;29;20035;-69
2023/10/01 02:31:39;;;;;;;1999.90;999.90;;;;;;;;;;4952946;29;20027;-67
2023/10/01 02:34:08;;;;;;;1999.90;999.90;;;;;;;;;;4952463;29;20502;-67
2023/10/01 02:36:42;;;;;;;1999.90;999.90;;;;;;;;;;4934754;29;20102;-69
2023/10/01 02:39:21;;;;;;;1999.90;999.90;;;;;;;;;;4952561;29;20046;-69
2023/10/01 02:44:46;;;;;;;1999.90;999.90;;;;;;;;;;4952387;29;20035;-69
2023/10/01 02:47:16;;;;;;;1999.90;999.90;;;;;;;;;;4951866;29;20042;-69
2023/10/01 02:49:49;;;;;;;1999.90;999.90;;;;;;;;;;4952765;29;20028;-69
2023/10/01 02:52:16;;;;;;;1999.90;999.90;;;;;;;;;;4952972;29;20034;-69
2023/10/01 02:54:42;;;;;;;1999.90;999.90;;;;;;;;;;4952493;29;20431;-68
2023/10/01 02:57:23;;;;;;;1999.90;999.90;;;;;;;;;;4952492;29;20047;-65
2023/10/01 03:02:38;;;;;;;1999.90;999.90;;;;;;;;;;4952423;29;20451;-68
2023/10/01 03:05:08;;;;;;;1999.90;999.90;;;;;;;;;;4952566;29;20358;-68
2023/10/01 03:07:38;;;;;;;1999.90;999.90;;;;;;;;;;4952728;29;20023;-68
2023/10/01 03:10:25;;;;;;;1999.90;999.90;;;;;;;;;;4952551;29;20558;-68
2023/10/01 03:12:53;;;;;;;1999.90;999.90;;;;;;;;;;4951869;29;20034;-70
2023/10/01 03:15:26;;;;;;;1999.90;999.90;;;;;;;;;;4952249;29;20434;-67
2023/10/01 03:17:56;;;;;;;1999.90;999.90;;;;;;;;;;4952391;29;20031;-69
2023/10/01 03:23:12;;;;;;;1999.90;999.90;;;;;;;;;;4952415;29;20043;-69
2023/10/01 03:25:42;;;;;;;1999.90;999.90;;;;;;;;;;4952158;28;20038;-68
2023/10/01 03:28:14;;;;;;;1999.90;999.90;;;;;;;;;;4952151;29;20035;-69
2023/10/01 03:30:40;;;;;;;;;;;;;;;;;;4952820;29;20077;-68
2023/10/01 03:33:15;;;;;;;1999.90;999.90;;;;;;;;;;4951897;29;19922;-68
2023/10/01 03:35:47;;;;;;;1999.90;999.90;;;;;;;;;;4951989;29;20093;-67
2023/10/01 03:38:14;;;;;;;1999.90;999.90;;;;;;;;;;4952157;29;20030;-67
2023/10/01 03:41:00;;;;;;;1999.90;999.90;;;;;;;;;;4952071;29;20364;-69
2023/10/01 03:43:35;;;;;;;1999.90;999.90;;;;;;;;;;4951872;29;20019;-70
2023/10/01 03:46:28;;;;;;;1999.90;999.90;;;;;;;;;;4952066;29;20027;-68
2023/10/01 03:51:53;;;;;;;1999.90;999.90;;;;;;;;;;4951860;29;19913;-68
2023/10/01 03:54:52;;;;;;;1999.90;999.90;;;;;;;;;;4951402;28;20491;-68
2023/10/01 03:57:22;;;;;;;1999.90;999.90;;;;;;;;;;4951052;28;20118;-68
2023/10/01 03:59:57;;;;;;;1999.90;999.90;;;;;;;;;;4951867;29;20032;-69
2023/10/01 04:02:27;;;;;;;1999.90;999.90;;;;;;;;;;4951549;29;20027;-69
2023/10/01 04:04:57;;;;;;;1999.90;999.90;;;;;;;;;;4934262;29;20030;-69
2023/10/01 04:07:40;;;;;;;1999.90;999.90;;;;;;;;;;4951660;29;20050;-67
2023/10/01 04:10:13;;;;;;;1999.90;999.90;;;;;;;;;;4951752;29;20455;-69
2023/10/01 04:12:44;;;;;;;1999.90;999.90;;;;;;;;;;4950909;29;20035;-67
2023/10/01 04:15:10;;;;;;;1999.90;999.90;;;;;;;;;;4951980;29;20400;-69
2023/10/01 04:17:36;;;;;;;1999.90;999.90;;;;;;;;;;4951782;29;20035;-69
2023/10/01 04:20:12;;;;;;;1999.90;999.90;;;;;;;;;;4951605;29;20046;-68
2023/10/01 04:22:40;;;;;;;1999.90;999.90;;;;;;;;;;4951266;29;20067;-69
2023/10/01 04:25:11;;;;;;;1999.90;999.90;;;;;;;;;;4952864;28;20365;-68
2023/10/01 04:27:41;;;;;;;1999.90;999.90;;;;;;;;;;4954807;28;20023;-69
2023/10/01 04:30:09;;;;;;;1999.90;999.90;;;;;;;;;;4955152;29;20042;-67
2023/10/01 04:32:36;;;;;;;1999.90;999.90;;;;;;;;;;4955377;29;20027;-68
2023/10/01 04:35:12;;;;;;;1999.90;999.90;;;;;;;;;;4954750;29;20040;-68
2023/10/01 04:37:40;;;;;;;1999.90;999.90;;;;;;;;;;4955119;29;20015;-69
2023/10/01 04:43:08;;;;;;;1999.90;999.90;;;;;;;;;;4955258;29;20042;-67
2023/10/01 04:45:40;;;;;;;1999.90;999.90;;;;;;;;;;4954981;29;20070;-68
2023/10/01 04:48:15;;;;;;;1999.90;999.90;;;;;;;;;;4955193;29;20034;-68
2023/10/01 04:50:42;;;;;;;1999.90;999.90;;;;;;;;;;4954589;29;20035;-69
2023/10/01 04:53:13;;;;;;;1999.90;999.90;;;;;;;;;;4954811;29;20039;-68
2023/10/01 04:55:42;;;;;;;1999.90;999.90;;;;;;;;;;4954659;29;20032;-67
2023/10/01 04:58:12;;;;;;;1999.90;999.90;;;;;;;;;;4954595;29;20085;-67
2023/10/01 05:00:39;;;;;;;1999.90;999.90;;;;;;;;;;4954884;29;20027;-68
2023/10/01 05:03:06;;;;;;;1999.90;999.90;;;;;;;;;;4955168;29;20019;-68
2023/10/01 05:05:36;;;;;;;1999.90;999.90;;;;;;;;;;4954693;29;20038;-69
2023/10/01 05:08:04;;;;;;;1999.90;999.90;;;;;;;;;;4954752;29;20062;-68
2023/10/01 05:10:50;;;;;;;1999.90;999.90;;;;;;;;;;4954563;29;20076;-69
2023/10/01 05:13:19;;;;;;;1999.90;999.90;;;;;;;;;;4954468;29;20042;-66
2023/10/01 05:15:49;;;;;;;1999.90;999.90;;;;;;;;;;4954643;29;20030;-68
2023/10/01 05:18:15;;;;;;;1999.90;999.90;;;;;;;;;;4954799;29;20031;-68
2023/10/01 05:20:41;;;;;;;1999.90;999.90;;;;;;;;;;4959703;28;20053;-69
2023/10/01 05:23:07;;;;;;;1999.90;999.90;;;;;;;;;;4955708;28;20443;-70
2023/10/01 05:25:34;;;;;;;1999.90;999.90;;;;;;;;;;4973655;28;20037;-69
2023/10/01 05:28:03;;;;;;;1999.90;999.90;;;;;;;;;;4973735;28;20035;-68
2023/10/01 05:30:38;;;;;;;1999.90;999.90;;;;;;;;;;4973565;28;20139;-69
2023/10/01 05:33:06;;;;;;;1999.90;999.90;;;;;;;;;;4973586;28;20050;-69
2023/10/01 05:35:48;;;;;;;1999.90;999.90;;;;;;;;;;4973330;28;20062;-68
2023/10/01 05:38:16;;;;;;;1999.90;999.90;;;;;;;;;;4973686;28;20030;-69
2023/10/01 05:40:44;;;;;;;1999.90;999.90;;;;;;;;;;4973488;28;20614;-69
2023/10/01 05:43:13;;;;;;;1999.90;999.90;;;;;;;;;;4973380;28;20094;-69
2023/10/01 05:45:52;;;;;;;1999.90;999.90;;;;;;;;;;4973496;28;20027;-68
2023/10/01 05:48:19;;;;;;;1999.90;999.90;;;;;;;;;;4973375;28;20030;-69
2023/10/01 05:50:46;;;;;;;1999.90;999.90;;;;;;;;;;4973580;28;20023;-68
2023/10/01 05:53:13;;;;;;;1999.90;999.90;;;;;;;;;;4973196;28;20147;-70
2023/10/01 05:55:40;;;;;;;1999.90;999.90;;;;;;;;;;4973014;28;20051;-69
2023/10/01 05:58:12;;;;;;;1999.90;999.90;;;;;;;;;;4973370;28;20026;-69
2023/10/01 06:00:45;;;;;;;1999.90;999.90;;;;;;;;;;4973180;28;20038;-69
2023/10/01 06:03:18;;;;;;;1999.90;999.90;;;;;;;;;;4973125;28;20026;-69
2023/10/01 06:05:50;;;;;;;1999.90;999.90;;;;;;;;;;4972617;28;20553;-69
2023/10/01 06:08:24;;;;;;;1999.90;999.90;;;;;;;;;;4972485;28;20111;-71
2023/10/01 06:11:07;;;;;;;1999.90;999.90;;;;;;;;;;4972539;28;20058;-69
2023/10/01 06:13:38;;;;;;;1999.90;999.90;;;;;;;;;;4972515;28;20434;-68
2023/10/01 06:16:15;;;;;;;1999.90;999.90;;;;;;;;;;4972761;28;20122;-68
2023/10/01 06:18:51;;;;;;;1999.90;999.90;;;;;;;;;;4972309;28;20019;-69
2023/10/01 06:21:19;;;;;;;1999.90;999.90;;;;;;;;;;4954854;28;20384;-68
2023/10/01 06:23:51;;;;;;;1999.90;999.90;;;;;;;;;;4972144;28;20085;-69
2023/10/01 06:26:42;;;;;;;1999.90;999.90;;;;;;;;;;4972213;28;20038;-69
2023/10/01 06:29:10;;;;;;;1999.90;999.90;;;;;;;;;;4954624;28;20391;-70
2023/10/01 06:32:00;;;;;;;1999.90;999.90;;;;;;;;;;4972046;28;20093;-69
2023/10/01 06:34:29;;;;;;;1999.90;999.90;;;;;;;;;;4953630;28;20414;-69
2023/10/01 06:36:57;;;;;;;1999.90;999.90;;;;;;;;;;4971767;28;20014;-68
2023/10/01 06:39:24;;;;;;;1999.90;999.90;;;;;;;;;;4971741;28;20031;-68
2023/10/01 06:41:52;;;;;;;1999.90;999.90;;;;;;;;;;4970623;28;20426;-69
2023/10/01 06:44:19;;;;;;;1999.90;999.90;;;;;;;;;;4970751;28;20034;-69
2023/10/01 06:46:48;;;;;;;1999.90;999.90;;;;;;;;;;4970754;28;20430;-69
2023/10/01 06:49:18;;;;;;;1999.90;999.90;;;;;;;;;;4971074;28;20379;-69
2023/10/01 06:51:44;;;;;;;1999.90;999.90;;;;;;;;;;4971204;28;20019;-69
2023/10/01 06:54:11;;;;;;;1999.90;999.90;;;;;;;;;;4971678;28;20738;-69
2023/10/01 06:56:50;;;;;;;1999.90;999.90;;;;;;;;;;4970842;28;20050;-69
2023/10/01 06:59:17;;;;;;;1999.90;999.90;;;;;;;;;;4971505;28;20458;-68
2023/10/01 07:01:47;;;;;;;1999.90;999.90;;;;;;;;;;4971903;28;20019;-69
2023/10/01 07:04:19;;;;;;;1999.90;999.90;;;;;;;;;;4971495;28;20046;-69
2023/10/01 07:06:48;;;;;;;1999.90;999.90;;;;;;;;;;4971555;28;20085;-69
2023/10/01 07:09:34;;;;;;;1999.90;999.90;;;;;;;;;;4971459;28;20019;-69
2023/10/01 07:12:01;;;;;;;1999.90;999.90;;;;;;;;;;4971277;28;20026;-69
2023/10/01 07:14:38;;;;;;;1999.90;999.90;;;;;;;;;;4971104;28;20035;-69
2023/10/01 07:17:08;;;;;;;1999.90;999.90;;;;;;;;;;4971594;28;20066;-69
2023/10/01 07:19:34;;;;;;;1999.90;999.90;;;;;;;;;;4956848;28;20776;-68
2023/10/01 07:22:06;;;;;;;1999.90;999.90;;;;;;;;;;4951734;29;20463;-67
2023/10/01 07:24:33;;;;;;;;;;;;;;;;;;4951836;28;20038;-63
2023/10/01 07:27:03;;;;;;;1999.90;999.90;;;;;;;;;;4932759;28;19914;-68
2023/10/01 07:29:30;;;;;;;1999.90;999.90;;;;;;;;;;4943147;29;20435;-68
2023/10/01 07:31:58;;;;;;;1999.90;999.90;;;;;;;;;;4944974;29;20129;-63
2023/10/01 07:34:26;;;;;;;1999.90;999.90;;;;;;;;;;4951334;29;20478;-68
2023/10/01 07:36:54;;;;;;;1999.90;999.90;;;;;;;;;;4950152;29;20031;-64
2023/10/01 07:39:21;;;;;;;1999.90;999.90;;;;;;;;;;4944698;29;20118;-67
2023/10/01 07:41:48;;;;;;;1999.90;999.90;;;;;;;;;;4932792;29;20027;-68
2023/10/01 07:44:15;;;;;;;1999.90;999.90;;;;;;;;;;4932625;29;20034;-68
2023/10/01 07:46:42;;;;;;;1999.90;999.90;;;;;;;;;;4936213;29;20043;-65
2023/10/01 07:49:11;;;;;;;1999.90;999.90;;;;;;;;;;4938108;29;20027;-69
2023/10/01 07:51:44;;;;;;;1999.90;999.90;;;;;;;;;;4915215;29;20028;-66
2023/10/01 07:54:10;;;;;;;1999.90;999.90;;;;;;;;;;4932952;29;20123;-68
2023/10/01 07:56:48;;;;;;;1999.90;999.90;;;;;;;;;;4932887;29;20103;-67
2023/10/01 07:59:34;;;;;;;1999.90;999.90;;;;;;;;;;4934644;29;20051;-68
2023/10/01 08:07:15;;;;;;;1999.90;999.90;;;;;;;;;;4936986;29;20042;-68
2023/10/01 08:09:46;;;;;;;1999.90;999.90;;;;;;;;;;4936755;29;20028;-68
2023/10/01 08:12:13;;;;;;;1999.90;999.90;;;;;;;;;;4936541;29;20027;-67
2023/10/01 08:14:40;;;;;;;1999.90;999.90;;;;;;;;;;4936282;29;20131;-68
2023/10/01 08:17:07;;;;;;;1999.90;999.90;;;;;;;;;;4936384;29;20502;-65
2023/10/01 08:19:45;;;;;;;1999.90;999.90;;;;;;;;;;4936553;29;20027;-68
2023/10/01 08:22:15;;;;;;;1999.90;999.90;;;;;;;;;;4936474;29;20020;-68
2023/10/01 08:24:49;;;;;;;1999.90;999.90;;;;;;;;;;4936135;29;20034;-68
2023/10/01 08:27:29;;;;;;;1999.90;999.90;;;;;;;;;;4936010;29;20395;-68
2023/10/01 08:29:59;;;;;;;1999.90;999.90;;;;;;;;;;4935709;29;20031;-66
2023/10/01 08:32:38;;;;;;;1999.90;999.90;;;;;;;;;;4918675;29;20023;-68
2023/10/01 08:35:08;;;;;;;1999.90;999.90;;;;;;;;;;4935918;29;20142;-68
2023/10/01 08:37:37;;;;;;;1999.90;999.90;;;;;;;;;;4935554;29;20033;-68
2023/10/01 08:40:14;;;;;;;1999.90;999.90;;;;;;;;;;4935843;29;20031;-67
2023/10/01 08:42:44;;;;;;;1999.90;999.90;;;;;;;;;;4935692;29;20028;-68
2023/10/01 08:45:12;;;;;;;1999.90;999.90;;;;;;;;;;4935739;29;20046;-65
2023/10/01 08:47:38;;;;;;;1999.90;999.90;;;;;;;;;;4935383;29;20024;-66
2023/10/01 08:52:52;;;;;;;1999.90;999.90;;;;;;;;;;4934796;29;20391;-64
2023/10/01 08:55:20;;;;;;;1999.90;999.90;;;;;;;;;;4935499;29;20023;-68
2023/10/01 08:57:46;;;;;;;1999.90;999.90;;;;;;;;;;4935035;29;20047;-68
2023/10/01 09:00:20;;;;;;;1999.90;999.90;;;;;;;;;;4934847;29;20500;-67
2023/10/01 09:03:07;;;;;;;1999.90;999.90;;;;;;;;;;4935365;29;20020;-65
2023/10/01 09:05:34;;;;;;;1999.90;999.90;;;;;;;;;;4935042;29;20027;-67
2023/10/01 09:08:15;;;;;;;1999.90;999.90;;;;;;;;;;4935388;29;20111;-68
2023/10/01 09:10:51;;;;;;;1999.90;999.90;;;;;;;;;;4934605;29;20043;-67
2023/10/01 09:13:21;;;;;;;1999.90;999.90;;;;;;;;;;4934783;29;20042;-65
2023/10/01 09:16:07;;;;;;;1999.90;999.90;;;;;;;;;;4934770;29;20024;-67
2023/10/01 09:18:37;;;;;;;1999.90;999.90;;;;;;;;;;4934838;29;20071;-68
2023/10/01 09:23:55;;;;;;;1999.90;999.90;;;;;;;;;;4934885;29;20536;-68
2023/10/01 09:29:25;;;;;;;1999.90;999.90;;;;;;;;;;4875393;29;20488;-66
2023/10/01 09:31:57;;;;;;;1999.90;999.90;;;;;;;;;;4875641;29;20037;-66
2023/10/01 09:34:31;;;;;;;;;;;;;;;;;;4860340;29;20068;-68
2023/10/01 09:37:35;;;;;;;1999.90;999.90;;;;;;;;;;4875759;29;19922;-68
2023/10/01 09:42:57;;;;;;;1999.90;999.90;;;;;;;;;;4875918;29;20048;-67
2023/10/01 09:45:26;;;;;;;1999.90;999.90;;;;;;;;;;4875475;29;20048;-69
2023/10/01 09:48:06;;;;;;;1999.90;999.90;;;;;;;;;;4875716;29;20066;-67
2023/10/01 09:50:44;;;;;;;1999.90;999.90;;;;;;;;;;4875864;29;20081;-68
2023/10/01 09:53:14;;;;;;;1999.90;999.90;;;;;;;;;;4875669;29;20428;-68
2023/10/01 09:55:51;;;;;;;1999.90;999.90;;;;;;;;;;4878021;29;20068;-68
2023/10/01 09:58:24;;;;;;;1999.90;999.90;;;;;;;;;;4894089;29;20052;-64
2023/10/01 10:00:51;;;;;;;1999.90;999.90;;;;;;;;;;4894089;29;20423;-67
2023/10/01 10:03:18;;;;;;;1999.90;999.90;;;;;;;;;;4893885;29;20032;-68
2023/10/01 10:05:46;;;;;;;1999.90;999.90;;;;;;;;;;4925393;29;20047;-68
2023/10/01 10:08:20;;;;;;;1999.90;999.90;;;;;;;;;;4933714;29;20543;-65
2023/10/01 10:10:55;;;;;;;1999.90;999.90;;;;;;;;;;4932223;29;20436;-67
2023/10/01 10:13:36;;;;;;;1999.90;999.90;;;;;;;;;;4933900;29;20395;-68
2023/10/01 10:19:12;;;;;;;1999.90;999.90;;;;;;;;;;4933804;29;20432;-67
2023/10/01 10:24:29;;;;;;;1999.90;999.90;;;;;;;;;;4932945;29;20111;-67
2023/10/01 10:27:03;;;;;;;1999.90;999.90;;;;;;;;;;4933745;29;20500;-68
2023/10/01 10:29:56;;;;;;;1999.90;999.90;;;;;;;;;;4933950;29;20114;-67
2023/10/01 10:32:27;;;;;;;1999.90;999.90;;;;;;;;;;4933387;29;20024;-67
2023/10/01 10:35:14;;;;;;;1999.90;999.90;;;;;;;;;;4933786;29;20139;-68
2023/10/01 10:37:53;;;;;;;1999.90;999.90;;;;;;;;;;4933734;29;20036;-69
2023/10/01 10:43:04;;;;;;;1999.90;999.90;;;;;;;;;;4933596;29;20500;-69
2023/10/01 10:45:42;;;;;;;1999.90;999.90;;;;;;;;;;4933279;29;20028;-68
2023/10/01 10:48:14;;;;;;;1999.90;999.90;;;;;;;;;;4932424;29;20055;-68
2023/10/01 10:50:50;;;;;;;1999.90;999.90;;;;;;;;;;4933447;29;20024;-68
2023/10/01 10:53:20;;;;;;;1999.90;999.90;;;;;;;;;;4933595;29;20103;-68
2023/10/01 10:56:02;;;;;;;1999.90;999.90;;;;;;;;;;4933375;29;20098;-69
2023/10/01 10:58:28;;;;;;;;;;;;;;;;;;4933849;29;20043;-69
2023/10/01 11:01:09;;;;;;;1999.90;999.90;;;;;;;;;;4933116;29;19914;-67
2023/10/01 11:03:41;;;;;;;1999.90;999.90;;;;;;;;;;4933470;29;20030;-65
2023/10/01 11:06:24;;;;;;;1999.90;999.90;;;;;;;;;;4933431;29;20031;-66
2023/10/01 11:08:54;;;;;;;1999.90;999.90;;;;;;;;;;4933562;29;20039;-70
2023/10/01 11:11:23;;;;;;;1999.90;999.90;;;;;;;;;;4933595;29;20055;-69
2023/10/01 11:13:59;;;;;;;1999.90;999.90;;;;;;;;;;4933357;29;20110;-68
2023/10/01 11:16:33;;;;;;;1999.90;999.90;;;;;;;;;;4933463;29;20055;-67
2023/10/01 11:19:12;;;;;;;1999.90;999.90;;;;;;;;;;4933034;29;20030;-66
2023/10/01 11:21:44;;;;;;;1999.90;999.90;;;;;;;;;;4933253;29;20031;-68
2023/10/01 11:24:10;;;;;;;;;;;;;;;;;;4933815;29;20027;-68
2023/10/01 11:26:36;;;;;;;1999.90;999.90;;;;;;;;;;4933012;29;19922;-69
2023/10/01 11:29:02;;;;;;;1999.90;999.90;;;;;;;;;;4932794;29;20174;-67
2023/10/01 11:31:31;;;;;;;1999.90;999.90;;;;;;;;;;4933025;29;20111;-69
2023/10/01 11:34:03;;;;;;;1999.90;999.90;;;;;;;;;;4934530;29;20043;-65
2023/10/01 11:36:35;;;;;;;1999.90;999.90;;;;;;;;;;4937195;29;20054;-68
2023/10/01 11:39:06;;;;;;;1999.90;999.90;;;;;;;;;;4936914;29;20024;-70
2023/10/01 11:41:52;;;;;;;1999.90;999.90;;;;;;;;;;4936810;29;20380;-68
2023/10/01 11:44:25;;;;;;;1999.90;999.90;;;;;;;;;;4936773;29;20383;-68
2023/10/01 11:46:57;;;;;;;1999.90;999.90;;;;;;;;;;4936775;29;20024;-67
2023/10/01 11:49:34;;;;;;;1999.90;999.90;;;;;;;;;;4937114;29;20034;-67
2023/10/01 11:52:20;;;;;;;1999.90;999.90;;;;;;;;;;4936943;29;20024;-67
2023/10/01 11:54:55;;;;;;;1999.90;999.90;;;;;;;;;;4936384;29;20458;-64
2023/10/01 11:57:22;;;;;;;1999.90;999.90;;;;;;;;;;4936636;29;20516;-69
2023/10/01 11:59:54;;;;;;;1999.90;999.90;;;;;;;;;;4936427;29;20063;-66
2023/10/01 12:02:22;;;;;;;1999.90;999.90;;;;;;;;;;4936174;29;20020;-66
2023/10/01 12:04:56;;;;;;;1999.90;999.90;;;;;;;;;;4936492;29;20538;-68
2023/10/01 12:07:23;;;;;;;1999.90;999.90;;;;;;;;;;4936409;29;20023;-66
2023/10/01 12:09:53;;;;;;;1999.90;999.90;;;;;;;;;;4936112;29;20096;-64
2023/10/01 12:12:21;;;;;;;1999.90;999.90;;;;;;;;;;4936081;29;20051;-68
2023/10/01 12:14:56;;;;;;;1999.90;999.90;;;;;;;;;;4936295;29;20044;-69
2023/10/01 12:17:26;;;;;;;1999.90;999.90;;;;;;;;;;4935519;29;20115;-69
2023/10/01 12:19:52;;;;;;;1999.90;999.90;;;;;;;;;;4935733;29;20028;-67
2023/10/01 12:22:23;;;;;;;1999.90;999.90;;;;;;;;;;4936205;29;20027;-68
2023/10/01 12:24:56;;;;;;;1999.90;999.90;;;;;;;;;;4918944;29;20110;-67
2023/10/01 12:27:38;;;;;;;1999.90;999.90;;;;;;;;;;4935572;29;20432;-67
2023/10/01 12:30:05;;;;;;;1999.90;999.90;;;;;;;;;;4935595;29;20024;-68
2023/10/01 12:32:41;;;;;;;1999.90;999.90;;;;;;;;;;4935402;29;20035;-67
2023/10/01 12:35:18;;;;;;;1999.90;999.90;;;;;;;;;;4935826;29;20039;-68
2023/10/01 12:37:44;;;;;;;1999.90;999.90;;;;;;;;;;4935908;29;20031;-68
2023/10/01 12:40:17;;;;;;;1999.90;999.90;;;;;;;;;;4935950;29;20460;-67
2023/10/01 12:42:50;;;;;;;1999.90;999.90;;;;;;;;;;4936060;29;20067;-66
2023/10/01 12:45:27;;;;;;;1999.90;999.90;;;;;;;;;;4916695;29;20539;-66
2023/10/01 12:47:53;;;;;;;1999.90;999.90;;;;;;;;;;4935845;29;20055;-67
2023/10/01 12:50:28;;;;;;;1999.90;999.90;;;;;;;;;;4936018;29;20403;-68
2023/10/01 12:55:56;;;;;;;1999.90;999.90;;;;;;;;;;4935603;29;20078;-67
2023/10/01 12:58:35;;;;;;;1999.90;999.90;;;;;;;;;;4936068;29;20173;-66
2023/10/01 13:01:01;;;;;;;1999.90;999.90;;;;;;;;;;4935610;29;20032;-67
2023/10/01 13:03:29;;;;;;;1999.90;999.90;;;;;;;;;;4935816;29;20030;-66
2023/10/01 13:05:55;;;;;;;1999.90;999.90;;;;;;;;;;4935317;29;20087;-66
2023/10/01 13:08:28;;;;;;;1999.90;999.90;;;;;;;;;;4935643;29;20032;-68
2023/10/01 13:10:55;;;;;;;1999.90;999.90;;;;;;;;;;4935125;29;20102;-67
2023/10/01 13:13:29;;;;;;;1999.90;999.90;;;;;;;;;;4944451;28;20637;-67
2023/10/01 13:15:55;;;;;;;1999.90;999.90;;;;;;;;;;4943087;29;20016;-67
2023/10/01 13:18:32;;;;;;;1999.90;999.90;;;;;;;;;;4944268;29;20031;-68
2023/10/01 13:20:59;;;;;;;1999.90;999.90;;;;;;;;;;4937631;29;20488;-67
2023/10/01 13:23:28;;;;;;;1999.90;999.90;;;;;;;;;;4940350;29;20114;-66
2023/10/01 13:26:07;;;;;;;1999.90;999.90;;;;;;;;;;4944564;29;20027;-66
2023/10/01 13:28:56;;;;;;;1999.90;999.90;;;;;;;;;;4943934;29;20110;-67
2023/10/01 13:34:09;;;;;;;1999.90;999.90;;;;;;;;;;4953994;29;20403;-67
2023/10/01 13:36:50;;;;;;;1999.90;999.90;;;;;;;;;;4954276;29;20167;-67
2023/10/01 14:09:46;;;;;;;1999.90;999.90;;;;;;;;;;4934763;28;20115;-75
2023/10/01 14:12:05;;;;;;;1999.90;999.90;;;;;;;;;;4959469;28;20049;-79
2023/10/01 14:14:37;;;;;;;1999.90;999.90;;;;;;;;;;4946139;28;20114;-71
2023/10/01 14:17:13;;;;;;;1999.90;999.90;;;;;;;;;;4963744;28;20031;-79
2023/10/01 14:19:41;;;;;;;1999.90;999.90;;;;;;;;;;4923119;29;20027;-77
2023/10/01 14:22:07;;;;;;;1999.90;999.90;;;;;;;;;;4949733;29;20431;-71
2023/10/01 14:24:42;;;;;;;1999.90;999.90;;;;;;;;;;4945326;28;20031;-79
2023/10/01 14:27:10;;;;;;;1999.90;999.90;;;;;;;;;;4944205;29;20082;-74
2023/10/01 14:29:36;;;;;;;1999.90;999.90;;;;;;;;;;4948481;29;20509;-77
2023/10/01 14:32:10;;;;;;;1999.90;999.90;;;;;;;;;;4938077;29;20036;-75
2023/10/01 14:34:36;;;;;;;1999.90;999.90;;;;;;;;;;4942240;28;20031;-68
2023/10/01 14:37:02;;;;;;;1999.90;999.90;;;;;;;;;;4938847;29;20050;-71
2023/10/01 14:39:32;;;;;;;1999.90;999.90;;;;;;;;;;4948628;28;20027;-67
2023/10/01 14:41:58;;;;;;;1999.90;999.90;;;;;;;;;;4945156;29;20062;-76
2023/10/01 14:44:27;;;;;;;1999.90;999.90;;;;;;;;;;4937445;29;20031;-70
2023/10/01 14:46:56;;;;;;;1999.90;999.90;;;;;;;;;;4941526;28;20031;-78
2023/10/01 14:49:22;;;;;;;1999.90;999.90;;;;;;;;;;4942554;29;20019;-78
2023/10/01 14:51:49;;;;;;;1999.90;999.90;;;;;;;;;;4937952;29;20407;-77
2023/10/01 14:54:16;;;;;;;1999.90;999.90;;;;;;;;;;4952390;28;20175;-76
2023/10/01 14:56:44;;;;;;;1999.90;999.90;;;;;;;;;;4941218;29;20419;-82
2023/10/01 14:59:14;;;;;;;1999.90;999.90;;;;;;;;;;4926397;29;20126;-82
2023/10/01 15:01:41;;;;;;;1999.90;999.90;;;;;;;;;;4950917;29;20058;-81
2023/10/01 15:04:29;;;;;;;1999.90;999.90;;;;;;;;;;4938761;29;20063;-82
2023/10/01 15:07:00;;;;;;;1999.90;999.90;;;;;;;;;;4940966;29;20031;-81
2023/10/01 15:09:27;;;;;;;1999.90;999.90;;;;;;;;;;4934222;29;20024;-82
2023/10/01 15:11:57;;;;;;;1999.90;999.90;;;;;;;;;;4934682;29;20031;-79
2023/10/01 15:14:27;;;;;;;1999.90;999.90;;;;;;;;;;4933775;29;20403;-76
2023/10/01 15:17:17;;;;;;;1999.90;999.90;;;;;;;;;;4934861;29;20027;-72
2023/10/01 15:19:53;;;;;;;1999.90;999.90;;;;;;;;;;4935352;29;20047;-76
2023/10/01 15:22:19;;;;;;;1999.90;999.90;;;;;;;;;;4934181;29;20486;-79
2023/10/01 15:24:47;;;;;;;1999.90;999.90;;;;;;;;;;4938358;28;20395;-82
2023/10/01 15:27:23;;;;;;;1999.90;999.90;;;;;;;;;;4972438;28;20097;-85